createdAt,value
2023-03-15T00:01:33.267Z,84.71
2023-03-15T00:05:36.643Z,85.41
2023-03-15T00:09:39.400Z,85.78
2023-03-15T00:13:40.964Z,86.29
2023-03-15T00:17:42.542Z,85.61
2023-03-15T00:21:44.018Z,86.31
2023-03-15T00:25:48.075Z,86.41
2023-03-15T00:29:49.537Z,86.29
2023-03-15T00:33:52.773Z,86.05
2023-03-15T00:37:55.078Z,86.71
2023-03-15T00:41:57.841Z,86.74
2023-03-15T00:45:59.716Z,87.22
2023-03-15T00:50:01.207Z,87.10
2023-03-15T00:54:03.447Z,86.87
2023-03-15T00:58:06.176Z,87.05
2023-03-15T01:02:08.130Z,86.74
2023-03-15T01:06:12.020Z,87.47
2023-03-15T01:10:14.810Z,87.16
2023-03-15T01:14:18.041Z,87.69
2023-03-15T01:18:19.483Z,87.33
2023-03-15T01:22:22.059Z,86.51
2023-03-15T01:26:23.803Z,86.39
2023-03-15T01:30:26.827Z,88.13
2023-03-15T01:34:28.280Z,89.84
2023-03-15T01:38:30.878Z,91.45
2023-03-15T01:42:32.483Z,92.11
2023-03-15T01:46:37.851Z,92.38
2023-03-15T01:50:39.562Z,92.95
2023-03-15T01:54:46.129Z,93.00
2023-03-15T01:58:48.365Z,93.24
2023-03-15T02:02:53.633Z,93.08
2023-03-15T02:06:58.620Z,93.17
2023-03-15T02:11:04.072Z,92.53
2023-03-15T02:15:07.184Z,92.67
2023-03-15T02:19:20.643Z,92.26
2023-03-15T02:23:23.725Z,92.35
2023-03-15T02:27:30.620Z,92.93
2023-03-15T02:31:33.929Z,92.49
2023-03-15T02:35:35.571Z,92.87
2023-03-15T02:39:37.000Z,93.07
2023-03-15T02:43:42.465Z,92.86
2023-03-15T02:47:45.424Z,93.11
2023-03-15T02:51:46.915Z,93.10
2023-03-15T02:55:48.377Z,93.01
2023-03-15T02:59:51.202Z,93.11
2023-03-15T03:03:52.605Z,93.25
2023-03-15T03:07:54.341Z,93.18
2023-03-15T03:11:55.762Z,93.69
2023-03-15T03:15:58.836Z,93.21
2023-03-15T03:20:00.258Z,93.37
2023-03-15T03:24:01.966Z,93.40
2023-03-15T03:28:03.434Z,93.51
2023-03-15T03:32:06.836Z,93.28
2023-03-15T03:36:08.430Z,93.60
2023-03-15T03:40:11.524Z,93.69
2023-03-15T03:44:13.054Z,93.14
2023-03-15T03:48:15.901Z,93.18
2023-03-15T03:52:17.619Z,93.60
2023-03-15T03:56:18.997Z,93.51
2023-03-15T04:00:21.353Z,93.55
2023-03-15T04:04:24.368Z,93.73
2023-03-15T04:08:26.840Z,93.70
2023-03-15T04:12:28.273Z,93.66
2023-03-15T04:16:29.781Z,93.79
2023-03-15T04:20:32.845Z,93.60
2023-03-15T04:24:34.641Z,94.31
2023-03-15T04:28:36.136Z,94.12
2023-03-15T04:32:38.286Z,93.85
2023-03-15T04:36:41.276Z,93.91
2023-03-15T04:40:42.714Z,93.64
2023-03-15T04:44:44.200Z,93.96
2023-03-15T04:48:45.642Z,94.19
2023-03-15T04:52:48.760Z,94.57
2023-03-15T04:56:51.194Z,94.43
2023-03-15T05:00:53.166Z,94.35
2023-03-15T05:04:54.644Z,94.52
2023-03-15T05:08:57.487Z,94.63
2023-03-15T05:13:00.835Z,94.40
2023-03-15T05:17:02.306Z,94.11
2023-03-15T05:21:04.226Z,93.83
2023-03-15T05:25:09.020Z,93.90
2023-03-15T05:29:10.666Z,93.45
2023-03-15T05:33:12.048Z,93.67
2023-03-15T05:37:13.465Z,93.58
2023-03-15T05:41:16.807Z,93.97
2023-03-15T05:45:19.723Z,93.77
2023-03-15T05:49:21.633Z,93.99
2023-03-15T05:53:23.072Z,93.78
2023-03-15T05:57:25.922Z,94.25
2023-03-15T06:01:27.344Z,94.52
2023-03-15T06:05:28.824Z,94.15
2023-03-15T06:09:30.469Z,94.41
2023-03-15T06:13:33.519Z,94.17
2023-03-15T06:17:34.942Z,94.22
2023-03-15T06:21:36.329Z,94.04
2023-03-15T06:25:37.722Z,94.18
2023-03-15T06:29:40.706Z,94.21
2023-03-15T06:33:42.220Z,94.08
2023-03-15T06:37:43.944Z,93.79
2023-03-15T06:41:45.369Z,93.83
2023-03-15T06:45:48.630Z,93.73
2023-03-15T06:49:50.086Z,93.55
2023-03-15T06:53:52.174Z,93.62
2023-03-15T06:57:53.839Z,93.97
2023-03-15T07:01:56.860Z,93.77
2023-03-15T07:05:58.634Z,93.83
2023-03-15T07:10:00.285Z,93.81
2023-03-15T07:14:01.945Z,93.39
2023-03-15T07:18:05.039Z,93.81
2023-03-15T07:22:07.010Z,93.58
2023-03-15T07:26:08.601Z,93.85
2023-03-15T07:30:11.380Z,93.99
2023-03-15T07:34:14.363Z,94.31
2023-03-15T07:38:16.017Z,93.92
2023-03-15T07:42:17.479Z,93.60
2023-03-15T07:46:18.984Z,92.64
2023-03-15T07:50:22.396Z,92.97
2023-03-15T07:54:23.804Z,92.30
2023-03-15T07:58:25.370Z,91.79
2023-03-15T08:02:29.008Z,90.90
2023-03-15T08:06:33.420Z,91.36
2023-03-15T08:10:34.878Z,91.79
2023-03-15T08:14:36.505Z,91.33
2023-03-15T08:18:37.985Z,90.98
2023-03-15T08:22:41.291Z,91.63
2023-03-15T08:26:42.766Z,91.40
2023-03-15T08:30:44.418Z,91.85
2023-03-15T08:34:46.255Z,91.68
2023-03-15T08:38:49.013Z,91.22
2023-03-15T08:42:50.795Z,90.22
2023-03-15T08:46:52.545Z,90.47
2023-03-15T08:50:54.368Z,91.16
2023-03-15T08:54:57.505Z,90.57
2023-03-15T08:58:59.188Z,90.34
2023-03-15T09:03:01.162Z,88.05
2023-03-15T09:07:02.559Z,87.81
2023-03-15T09:11:05.765Z,88.68
2023-03-15T09:15:08.562Z,88.21
2023-03-15T09:19:10.294Z,85.97
2023-03-15T09:23:12.170Z,86.71
2023-03-15T09:27:15.498Z,85.08
2023-03-15T09:31:17.039Z,85.49
2023-03-15T09:35:20.384Z,83.15
2023-03-15T09:39:22.765Z,84.98
2023-03-15T09:43:54.017Z,84.32
2023-03-15T09:48:04.281Z,83.03
2023-03-15T09:52:26.042Z,81.06
2023-03-15T09:56:32.385Z,78.51
2023-03-15T10:00:39.821Z,71.67
2023-03-15T10:04:45.527Z,70.31
2023-03-15T10:08:47.760Z,61.92
2023-03-15T10:12:59.636Z,62.13
2023-03-15T10:17:12.810Z,65.72
2023-03-15T10:21:30.763Z,66.25
2023-03-15T10:25:33.058Z,62.75
2023-03-15T10:29:35.162Z,60.46
2023-03-15T10:33:38.815Z,58.13
2023-03-15T10:37:43.144Z,61.77
2023-03-15T10:41:48.033Z,58.47
2023-03-15T10:46:00.666Z,59.35
2023-03-15T10:50:02.445Z,54.16
2023-03-15T10:54:12.525Z,54.18
2023-03-15T10:58:21.176Z,57.68
2023-03-15T11:02:25.237Z,59.26
2023-03-15T11:06:28.240Z,56.75
2023-03-15T11:10:35.018Z,53.29
2023-03-15T11:14:40.981Z,56.11
2023-03-15T11:18:49.167Z,57.14
2023-03-15T11:22:52.067Z,56.90
2023-03-15T11:26:58.980Z,57.88
2023-03-15T11:31:02.109Z,58.08
2023-03-15T11:35:06.024Z,57.95
2023-03-15T11:39:13.038Z,56.52
2023-03-15T11:43:21.746Z,56.43
2023-03-15T11:47:37.426Z,59.58
2023-03-15T11:51:39.994Z,58.10
2023-03-15T11:55:46.987Z,59.37
2023-03-15T11:59:49.773Z,62.55
2023-03-15T12:03:51.507Z,60.01
2023-03-15T12:08:16.223Z,56.84
2023-03-15T12:12:44.808Z,63.01
2023-03-15T12:16:50.651Z,62.48
2023-03-15T12:21:09.466Z,63.84
2023-03-15T12:25:14.786Z,68.05
2023-03-15T12:29:20.678Z,64.82
2023-03-15T12:33:25.907Z,61.75
2023-03-15T12:37:40.199Z,54.55
2023-03-15T12:41:43.963Z,54.83
2023-03-15T12:45:46.747Z,53.27
2023-03-15T12:49:50.222Z,51.38
2023-03-15T12:53:53.317Z,54.02
2023-03-15T12:57:56.255Z,56.42
2023-03-15T13:01:59.761Z,52.75
2023-03-15T13:06:14.065Z,52.14
2023-03-15T13:10:41.540Z,52.17
2023-03-15T13:14:50.162Z,48.95
2023-03-15T13:19:01.221Z,52.06
2023-03-15T13:23:13.865Z,49.75
2023-03-15T13:27:29.741Z,52.44
2023-03-15T13:31:32.264Z,53.61
2023-03-15T13:35:41.841Z,49.21
2023-03-15T13:39:56.526Z,49.21
2023-03-15T13:44:00.866Z,47.57
2023-03-15T13:48:04.374Z,46.67
2023-03-15T13:52:06.898Z,46.46
2023-03-15T13:56:32.685Z,46.86
2023-03-15T14:00:40.204Z,46.60
2023-03-15T14:04:45.429Z,51.97
2023-03-15T14:08:47.881Z,50.02
2023-03-15T14:12:52.843Z,47.87
2023-03-15T14:17:05.509Z,47.86
2023-03-15T14:21:13.662Z,50.36
2023-03-15T14:25:21.916Z,48.65
2023-03-15T14:29:29.746Z,47.32
2023-03-15T14:33:33.516Z,46.38
2023-03-15T14:37:38.266Z,45.79
2023-03-15T14:41:39.710Z,45.50
2023-03-15T14:45:45.579Z,47.53
2023-03-15T14:49:47.314Z,44.77
2023-03-15T14:53:52.373Z,43.99
2023-03-15T14:57:53.820Z,44.06
2023-03-15T15:01:59.362Z,43.78
2023-03-15T15:06:02.583Z,44.53
2023-03-15T15:10:04.578Z,44.14
2023-03-15T15:14:12.484Z,45.53
2023-03-15T15:18:16.983Z,43.12
2023-03-15T15:22:20.181Z,45.26
2023-03-15T15:26:23.692Z,46.25
2023-03-15T15:30:25.217Z,47.79
2023-03-15T15:34:28.195Z,45.76
2023-03-15T15:38:32.420Z,46.45
2023-03-15T15:42:34.096Z,49.78
2023-03-15T15:46:37.040Z,47.59
2023-03-15T15:50:39.930Z,47.94
2023-03-15T15:54:41.400Z,47.67
2023-03-15T15:58:44.418Z,44.09
2023-03-15T16:02:48.848Z,44.58
2023-03-15T16:06:54.855Z,44.48
2023-03-15T16:10:56.330Z,48.83
2023-03-15T16:14:57.794Z,48.62
2023-03-15T16:18:59.244Z,47.04
2023-03-15T16:23:04.092Z,47.62
2023-03-15T16:27:08.147Z,53.70
2023-03-15T16:31:09.639Z,51.13
2023-03-15T16:35:12.779Z,50.02
2023-03-15T16:39:16.505Z,57.07
2023-03-15T16:43:18.694Z,58.66
2023-03-15T16:47:20.592Z,59.10
2023-03-15T16:51:23.219Z,57.38
2023-03-15T16:55:28.157Z,60.91
2023-03-15T16:59:29.873Z,56.44
2023-03-15T17:03:31.378Z,62.42
2023-03-15T17:07:35.226Z,63.08
2023-03-15T17:11:40.840Z,63.99
2023-03-15T17:15:43.083Z,64.06
2023-03-15T17:19:44.674Z,64.82
2023-03-15T17:23:47.468Z,66.22
2023-03-15T17:27:50.681Z,66.20
2023-03-15T17:31:52.148Z,66.33
2023-03-15T17:35:54.113Z,66.30
2023-03-15T17:39:55.648Z,66.14
2023-03-15T17:43:58.889Z,67.34
2023-03-15T17:48:01.882Z,68.19
2023-03-15T17:52:03.467Z,69.43
2023-03-15T17:56:06.050Z,70.43
2023-03-15T18:00:13.022Z,71.24
2023-03-15T18:04:15.881Z,70.84
2023-03-15T18:08:20.049Z,70.91
2023-03-15T18:12:22.341Z,71.01
2023-03-15T18:16:25.459Z,71.53
2023-03-15T18:20:26.973Z,70.89
2023-03-15T18:24:29.016Z,70.99
2023-03-15T18:28:30.578Z,69.99
2023-03-15T18:32:33.688Z,70.50
2023-03-15T18:36:35.126Z,71.50
2023-03-15T18:40:36.587Z,72.13
2023-03-15T18:44:38.297Z,66.22
2023-03-15T18:48:43.313Z,68.45
2023-03-15T18:52:45.104Z,66.81
2023-03-15T18:56:46.667Z,62.93
2023-03-15T19:00:48.295Z,61.99
2023-03-15T19:04:52.250Z,66.06
2023-03-15T19:08:53.922Z,67.81
2023-03-15T19:12:55.387Z,69.01
2023-03-15T19:16:57.087Z,69.83
2023-03-15T19:21:00.345Z,70.28
2023-03-15T19:25:01.760Z,69.46
2023-03-15T19:29:03.362Z,71.18
2023-03-15T19:33:05.304Z,71.58
2023-03-15T19:37:08.535Z,69.42
2023-03-15T19:41:12.557Z,70.50
2023-03-15T19:45:14.947Z,72.10
2023-03-15T19:49:16.793Z,72.87
2023-03-15T19:53:21.003Z,70.63
2023-03-15T19:57:22.432Z,70.10
2023-03-15T20:01:24.113Z,70.23
2023-03-15T20:05:25.830Z,67.20
2023-03-15T20:09:28.627Z,68.67
2023-03-15T20:13:30.187Z,68.18
2023-03-15T20:17:32.059Z,65.83
2023-03-15T20:21:33.747Z,66.27
2023-03-15T20:25:36.616Z,64.41
2023-03-15T20:29:39.092Z,65.18
2023-03-15T20:33:42.672Z,64.13
2023-03-15T20:37:45.088Z,64.51
2023-03-15T20:41:48.056Z,63.92
2023-03-15T20:45:54.617Z,63.08
2023-03-15T20:49:56.259Z,61.19
2023-03-15T20:53:57.676Z,62.71
2023-03-15T20:58:00.448Z,62.90
2023-03-15T21:02:01.852Z,61.94
2023-03-15T21:06:05.512Z,60.50
2023-03-15T21:10:08.157Z,62.19
2023-03-15T21:14:11.831Z,62.27
2023-03-15T21:18:13.356Z,63.75
2023-03-15T21:22:15.886Z,62.33
2023-03-15T21:26:17.585Z,59.72
2023-03-15T21:30:21.728Z,59.61
2023-03-15T21:34:24.926Z,59.92
2023-03-15T21:38:26.840Z,60.65
2023-03-15T21:42:28.378Z,61.58
2023-03-15T21:46:31.373Z,60.26
2023-03-15T21:50:33.169Z,59.58
2023-03-15T21:54:34.886Z,58.88
2023-03-15T21:58:36.305Z,59.54
2023-03-15T22:02:39.280Z,58.80
2023-03-15T22:06:41.122Z,58.96
2023-03-15T22:10:42.883Z,58.07
2023-03-15T22:14:45.890Z,58.64
2023-03-15T22:18:50.233Z,59.43
2023-03-15T22:22:52.636Z,58.96
2023-03-15T22:26:54.294Z,58.65
2023-03-15T22:30:55.806Z,59.44
2023-03-15T22:34:58.659Z,60.56
2023-03-15T22:39:00.426Z,61.83
2023-03-15T22:43:01.921Z,60.83
2023-03-15T22:47:03.648Z,60.19
2023-03-15T22:51:08.394Z,60.64
2023-03-15T22:55:10.951Z,60.39
2023-03-15T22:59:12.516Z,61.00
2023-03-15T23:03:14.079Z,60.82
2023-03-15T23:07:17.055Z,60.94
2023-03-15T23:11:18.781Z,61.72
2023-03-15T23:15:20.345Z,61.84
2023-03-15T23:19:21.873Z,62.18
2023-03-15T23:23:24.755Z,62.27
2023-03-15T23:27:26.450Z,62.68
2023-03-15T23:31:28.031Z,62.66
2023-03-15T23:35:29.789Z,62.96
2023-03-15T23:39:32.529Z,63.08
2023-03-15T23:43:34.070Z,63.60
2023-03-15T23:47:35.551Z,64.30
2023-03-15T23:51:37.011Z,65.06
2023-03-15T23:55:40.069Z,65.30
2023-03-15T23:59:42.083Z,65.25
